sensor_id;sensor_type;location;lat;lon;timestamp;P1;durP1;ratioP1;P2;durP2;ratioP2
60831;SDS011;46665;51.558;-0.448;2023-02-28T00:01:53;0.98;;;0.60;;
60831;SDS011;46665;51.558;-0.448;2023-02-28T00:04:37;0.85;;;0.57;;
60831;SDS011;46665;51.558;-0.448;2023-02-28T00:07:21;0.43;;;0.43;;
60831;SDS011;46665;51.558;-0.448;2023-02-28T00:10:05;0.70;;;0.70;;
60831;SDS011;46665;51.558;-0.448;2023-02-28T00:12:52;1.63;;;0.68;;
60831;SDS011;46665;51.558;-0.448;2023-02-28T00:15:37;3.95;;;0.73;;
60831;SDS011;46665;51.558;-0.448;2023-02-28T00:18:21;1.55;;;1.08;;
60831;SDS011;46665;51.558;-0.448;2023-02-28T00:21:05;7.93;;;0.75;;
60831;SDS011;46665;51.558;-0.448;2023-02-28T00:23:50;0.60;;;0.60;;
60831;SDS011;46665;51.558;-0.448;2023-02-28T00:26:34;8.05;;;0.65;;
60831;SDS011;46665;51.558;-0.448;2023-02-28T00:29:18;0.85;;;0.50;;
60831;SDS011;46665;51.558;-0.448;2023-02-28T00:32:02;4.65;;;0.77;;
60831;SDS011;46665;51.558;-0.448;2023-02-28T00:34:46;4.78;;;0.90;;
60831;SDS011;46665;51.558;-0.448;2023-02-28T00:37:30;0.65;;;0.55;;
60831;SDS011;46665;51.558;-0.448;2023-02-28T00:40:15;0.95;;;0.57;;
60831;SDS011;46665;51.558;-0.448;2023-02-28T00:42:59;3.45;;;0.80;;
60831;SDS011;46665;51.558;-0.448;2023-02-28T00:45:43;0.55;;;0.47;;
60831;SDS011;46665;51.558;-0.448;2023-02-28T00:48:27;0.82;;;0.75;;
60831;SDS011;46665;51.558;-0.448;2023-02-28T00:51:11;1.08;;;0.70;;
60831;SDS011;46665;51.558;-0.448;2023-02-28T00:53:55;0.60;;;0.60;;
60831;SDS011;46665;51.558;-0.448;2023-02-28T00:56:39;1.60;;;0.93;;
60831;SDS011;46665;51.558;-0.448;2023-02-28T00:59:23;4.57;;;1.45;;
60831;SDS011;46665;51.558;-0.448;2023-02-28T01:02:07;5.97;;;0.77;;
60831;SDS011;46665;51.558;-0.448;2023-02-28T01:04:50;3.72;;;0.80;;
60831;SDS011;46665;51.558;-0.448;2023-02-28T01:07:35;1.77;;;0.70;;
60831;SDS011;46665;51.558;-0.448;2023-02-28T01:10:19;1.67;;;0.60;;
60831;SDS011;46665;51.558;-0.448;2023-02-28T01:13:04;0.75;;;0.70;;
60831;SDS011;46665;51.558;-0.448;2023-02-28T01:15:52;1.77;;;0.80;;
60831;SDS011;46665;51.558;-0.448;2023-02-28T01:18:39;0.60;;;0.60;;
60831;SDS011;46665;51.558;-0.448;2023-02-28T01:21:23;1.05;;;0.82;;
60831;SDS011;46665;51.558;-0.448;2023-02-28T01:24:08;0.80;;;0.80;;
60831;SDS011;46665;51.558;-0.448;2023-02-28T01:26:52;0.30;;;0.30;;
60831;SDS011;46665;51.558;-0.448;2023-02-28T01:29:36;0.43;;;0.43;;
60831;SDS011;46665;51.558;-0.448;2023-02-28T01:32:20;1.30;;;1.17;;
60831;SDS011;46665;51.558;-0.448;2023-02-28T01:35:04;1.30;;;0.60;;
60831;SDS011;46665;51.558;-0.448;2023-02-28T01:37:48;3.63;;;0.70;;
60831;SDS011;46665;51.558;-0.448;2023-02-28T01:40:32;1.95;;;1.10;;
60831;SDS011;46665;51.558;-0.448;2023-02-28T01:43:19;3.33;;;1.00;;
60831;SDS011;46665;51.558;-0.448;2023-02-28T01:46:08;5.00;;;0.35;;
60831;SDS011;46665;51.558;-0.448;2023-02-28T01:49:34;1.80;;;1.45;;
60831;SDS011;46665;51.558;-0.448;2023-02-28T01:52:01;0.43;;;0.43;;
60831;SDS011;46665;51.558;-0.448;2023-02-28T01:54:46;0.50;;;0.50;;
60831;SDS011;46665;51.558;-0.448;2023-02-28T01:57:36;2.15;;;0.82;;
60831;SDS011;46665;51.558;-0.448;2023-02-28T02:00:25;2.25;;;0.70;;
60831;SDS011;46665;51.558;-0.448;2023-02-28T02:03:11;1.58;;;0.68;;
60831;SDS011;46665;51.558;-0.448;2023-02-28T02:05:58;5.57;;;0.75;;
60831;SDS011;46665;51.558;-0.448;2023-02-28T02:08:41;3.28;;;0.60;;
60831;SDS011;46665;51.558;-0.448;2023-02-28T02:11:25;4.85;;;1.70;;
60831;SDS011;46665;51.558;-0.448;2023-02-28T02:14:35;6.13;;;0.90;;
60831;SDS011;46665;51.558;-0.448;2023-02-28T02:17:33;1.52;;;0.73;;
60831;SDS011;46665;51.558;-0.448;2023-02-28T02:39:12;4.40;;;0.80;;
60831;SDS011;46665;51.558;-0.448;2023-02-28T02:42:01;0.88;;;0.88;;
60831;SDS011;46665;51.558;-0.448;2023-02-28T02:44:59;0.75;;;0.70;;
60831;SDS011;46665;51.558;-0.448;2023-02-28T02:47:48;1.35;;;0.70;;
60831;SDS011;46665;51.558;-0.448;2023-02-28T02:50:36;1.08;;;0.85;;
60831;SDS011;46665;51.558;-0.448;2023-02-28T02:53:27;1.98;;;0.98;;
60831;SDS011;46665;51.558;-0.448;2023-02-28T02:56:20;0.80;;;0.80;;
60831;SDS011;46665;51.558;-0.448;2023-02-28T02:59:09;4.65;;;0.95;;
60831;SDS011;46665;51.558;-0.448;2023-02-28T03:02:01;2.63;;;1.15;;
60831;SDS011;46665;51.558;-0.448;2023-02-28T03:04:50;4.13;;;0.77;;
60831;SDS011;46665;51.558;-0.448;2023-02-28T03:07:37;17.25;;;0.98;;
60831;SDS011;46665;51.558;-0.448;2023-02-28T03:13:27;7.93;;;0.95;;
60831;SDS011;46665;51.558;-0.448;2023-02-28T03:19:42;3.13;;;0.85;;
60831;SDS011;46665;51.558;-0.448;2023-02-28T03:23:01;2.08;;;0.98;;
60831;SDS011;46665;51.558;-0.448;2023-02-28T03:26:04;0.55;;;0.55;;
60831;SDS011;46665;51.558;-0.448;2023-02-28T03:32:22;0.60;;;0.60;;
60831;SDS011;46665;51.558;-0.448;2023-02-28T03:35:27;1.58;;;1.35;;
60831;SDS011;46665;51.558;-0.448;2023-02-28T03:38:18;2.10;;;1.38;;
60831;SDS011;46665;51.558;-0.448;2023-02-28T03:41:19;4.78;;;1.25;;
60831;SDS011;46665;51.558;-0.448;2023-02-28T03:44:07;0.85;;;0.85;;
60831;SDS011;46665;51.558;-0.448;2023-02-28T03:47:03;8.52;;;0.70;;
60831;SDS011;46665;51.558;-0.448;2023-02-28T03:49:58;1.20;;;0.95;;
60831;SDS011;46665;51.558;-0.448;2023-02-28T03:52:52;0.85;;;0.85;;
60831;SDS011;46665;51.558;-0.448;2023-02-28T03:59:45;1.23;;;0.57;;
60831;SDS011;46665;51.558;-0.448;2023-02-28T04:02:05;0.40;;;0.40;;
60831;SDS011;46665;51.558;-0.448;2023-02-28T04:04:49;6.72;;;0.80;;
60831;SDS011;46665;51.558;-0.448;2023-02-28T04:07:34;0.80;;;0.80;;
60831;SDS011;46665;51.558;-0.448;2023-02-28T04:10:19;0.57;;;0.57;;
60831;SDS011;46665;51.558;-0.448;2023-02-28T04:13:03;0.70;;;0.70;;
60831;SDS011;46665;51.558;-0.448;2023-02-28T04:15:47;2.05;;;1.48;;
60831;SDS011;46665;51.558;-0.448;2023-02-28T04:18:31;3.45;;;0.77;;
60831;SDS011;46665;51.558;-0.448;2023-02-28T04:21:15;2.00;;;1.05;;
60831;SDS011;46665;51.558;-0.448;2023-02-28T04:23:59;3.67;;;1.88;;
60831;SDS011;46665;51.558;-0.448;2023-02-28T04:26:47;0.88;;;0.70;;
60831;SDS011;46665;51.558;-0.448;2023-02-28T04:29:35;1.70;;;0.73;;
60831;SDS011;46665;51.558;-0.448;2023-02-28T04:32:19;1.08;;;0.63;;
60831;SDS011;46665;51.558;-0.448;2023-02-28T04:35:03;0.60;;;0.60;;
60831;SDS011;46665;51.558;-0.448;2023-02-28T04:37:48;2.15;;;0.80;;
60831;SDS011;46665;51.558;-0.448;2023-02-28T04:40:32;1.75;;;1.38;;
60831;SDS011;46665;51.558;-0.448;2023-02-28T04:43:16;0.60;;;0.60;;
60831;SDS011;46665;51.558;-0.448;2023-02-28T04:46:01;0.60;;;0.60;;
60831;SDS011;46665;51.558;-0.448;2023-02-28T04:48:46;1.33;;;0.80;;
60831;SDS011;46665;51.558;-0.448;2023-02-28T04:51:30;1.10;;;0.68;;
60831;SDS011;46665;51.558;-0.448;2023-02-28T04:54:14;1.55;;;0.50;;
60831;SDS011;46665;51.558;-0.448;2023-02-28T04:56:59;3.20;;;1.05;;
60831;SDS011;46665;51.558;-0.448;2023-02-28T04:59:43;4.30;;;1.17;;
60831;SDS011;46665;51.558;-0.448;2023-02-28T05:02:27;5.80;;;0.93;;
60831;SDS011;46665;51.558;-0.448;2023-02-28T05:05:11;1.25;;;0.93;;
60831;SDS011;46665;51.558;-0.448;2023-02-28T05:08:01;1.42;;;0.80;;
60831;SDS011;46665;51.558;-0.448;2023-02-28T05:10:45;0.88;;;0.60;;
60831;SDS011;46665;51.558;-0.448;2023-02-28T05:13:29;4.60;;;0.65;;
60831;SDS011;46665;51.558;-0.448;2023-02-28T05:16:13;2.63;;;0.88;;
60831;SDS011;46665;51.558;-0.448;2023-02-28T05:18:58;0.95;;;0.73;;
60831;SDS011;46665;51.558;-0.448;2023-02-28T05:21:50;0.88;;;0.70;;
60831;SDS011;46665;51.558;-0.448;2023-02-28T05:24:35;10.40;;;1.48;;
60831;SDS011;46665;51.558;-0.448;2023-02-28T05:27:19;1.35;;;0.38;;
60831;SDS011;46665;51.558;-0.448;2023-02-28T05:30:04;0.77;;;0.77;;
60831;SDS011;46665;51.558;-0.448;2023-02-28T05:32:50;1.23;;;0.98;;
60831;SDS011;46665;51.558;-0.448;2023-02-28T05:35:36;5.22;;;0.98;;
60831;SDS011;46665;51.558;-0.448;2023-02-28T05:38:24;1.05;;;0.95;;
60831;SDS011;46665;51.558;-0.448;2023-02-28T05:41:09;6.20;;;1.20;;
60831;SDS011;46665;51.558;-0.448;2023-02-28T05:43:54;2.38;;;0.55;;
60831;SDS011;46665;51.558;-0.448;2023-02-28T05:46:38;1.67;;;1.17;;
60831;SDS011;46665;51.558;-0.448;2023-02-28T05:49:22;1.30;;;1.15;;
60831;SDS011;46665;51.558;-0.448;2023-02-28T05:52:06;3.03;;;1.25;;
60831;SDS011;46665;51.558;-0.448;2023-02-28T05:54:50;1.08;;;0.80;;
60831;SDS011;46665;51.558;-0.448;2023-02-28T05:57:34;1.73;;;1.52;;
60831;SDS011;46665;51.558;-0.448;2023-02-28T06:00:18;1.73;;;1.48;;
60831;SDS011;46665;51.558;-0.448;2023-02-28T06:03:02;2.60;;;1.45;;
60831;SDS011;46665;51.558;-0.448;2023-02-28T06:05:47;6.57;;;1.38;;
60831;SDS011;46665;51.558;-0.448;2023-02-28T06:08:31;2.90;;;1.48;;
60831;SDS011;46665;51.558;-0.448;2023-02-28T06:11:15;1.90;;;1.40;;
60831;SDS011;46665;51.558;-0.448;2023-02-28T06:13:59;1.30;;;1.20;;
60831;SDS011;46665;51.558;-0.448;2023-02-28T06:16:45;1.88;;;1.48;;
60831;SDS011;46665;51.558;-0.448;2023-02-28T06:19:30;4.68;;;2.80;;
60831;SDS011;46665;51.558;-0.448;2023-02-28T06:22:14;3.53;;;1.35;;
60831;SDS011;46665;51.558;-0.448;2023-02-28T06:24:58;1.67;;;1.55;;
60831;SDS011;46665;51.558;-0.448;2023-02-28T06:27:43;3.03;;;2.13;;
60831;SDS011;46665;51.558;-0.448;2023-02-28T06:30:27;2.70;;;1.67;;
60831;SDS011;46665;51.558;-0.448;2023-02-28T06:33:13;8.73;;;2.22;;
60831;SDS011;46665;51.558;-0.448;2023-02-28T06:35:58;1.25;;;1.15;;
60831;SDS011;46665;51.558;-0.448;2023-02-28T06:38:42;3.78;;;2.03;;
60831;SDS011;46665;51.558;-0.448;2023-02-28T06:41:27;9.07;;;2.80;;
60831;SDS011;46665;51.558;-0.448;2023-02-28T06:44:11;1.40;;;1.30;;
60831;SDS011;46665;51.558;-0.448;2023-02-28T06:46:56;1.00;;;0.93;;
60831;SDS011;46665;51.558;-0.448;2023-02-28T06:49:40;2.22;;;1.00;;
60831;SDS011;46665;51.558;-0.448;2023-02-28T06:52:25;2.88;;;1.35;;
60831;SDS011;46665;51.558;-0.448;2023-02-28T06:55:09;4.40;;;1.65;;
60831;SDS011;46665;51.558;-0.448;2023-02-28T06:57:53;1.38;;;1.27;;
60831;SDS011;46665;51.558;-0.448;2023-02-28T07:00:38;2.47;;;1.60;;
60831;SDS011;46665;51.558;-0.448;2023-02-28T07:03:22;3.50;;;2.25;;
60831;SDS011;46665;51.558;-0.448;2023-02-28T07:06:06;3.67;;;2.72;;
60831;SDS011;46665;51.558;-0.448;2023-02-28T07:08:51;4.25;;;2.40;;
60831;SDS011;46665;51.558;-0.448;2023-02-28T07:14:22;1.65;;;1.55;;
60831;SDS011;46665;51.558;-0.448;2023-02-28T07:17:09;1.75;;;1.60;;
60831;SDS011;46665;51.558;-0.448;2023-02-28T07:19:55;2.70;;;2.03;;
60831;SDS011;46665;51.558;-0.448;2023-02-28T07:22:39;4.28;;;2.97;;
60831;SDS011;46665;51.558;-0.448;2023-02-28T07:25:25;3.13;;;1.55;;
60831;SDS011;46665;51.558;-0.448;2023-02-28T07:28:11;4.72;;;1.95;;
60831;SDS011;46665;51.558;-0.448;2023-02-28T07:30:56;4.20;;;1.52;;
60831;SDS011;46665;51.558;-0.448;2023-02-28T07:33:40;1.20;;;1.00;;
60831;SDS011;46665;51.558;-0.448;2023-02-28T07:36:25;2.95;;;1.10;;
60831;SDS011;46665;51.558;-0.448;2023-02-28T07:39:09;1.73;;;1.52;;
60831;SDS011;46665;51.558;-0.448;2023-02-28T07:41:53;4.45;;;1.25;;
60831;SDS011;46665;51.558;-0.448;2023-02-28T07:44:38;1.90;;;1.33;;
60831;SDS011;46665;51.558;-0.448;2023-02-28T07:47:24;2.35;;;1.65;;
60831;SDS011;46665;51.558;-0.448;2023-02-28T07:50:10;1.67;;;0.93;;
60831;SDS011;46665;51.558;-0.448;2023-02-28T07:52:57;2.53;;;1.40;;
60831;SDS011;46665;51.558;-0.448;2023-02-28T07:55:42;1.40;;;1.27;;
60831;SDS011;46665;51.558;-0.448;2023-02-28T07:58:27;0.90;;;0.85;;
60831;SDS011;46665;51.558;-0.448;2023-02-28T08:01:12;1.27;;;1.23;;
60831;SDS011;46665;51.558;-0.448;2023-02-28T08:03:57;2.20;;;1.38;;
60831;SDS011;46665;51.558;-0.448;2023-02-28T08:06:41;1.30;;;1.10;;
60831;SDS011;46665;51.558;-0.448;2023-02-28T08:09:25;2.13;;;1.52;;
60831;SDS011;46665;51.558;-0.448;2023-02-28T08:12:09;3.63;;;1.27;;
60831;SDS011;46665;51.558;-0.448;2023-02-28T08:14:54;1.13;;;1.02;;
60831;SDS011;46665;51.558;-0.448;2023-02-28T08:17:38;3.47;;;1.50;;
60831;SDS011;46665;51.558;-0.448;2023-02-28T08:20:23;1.15;;;1.00;;
60831;SDS011;46665;51.558;-0.448;2023-02-28T08:23:08;7.15;;;1.42;;
60831;SDS011;46665;51.558;-0.448;2023-02-28T08:25:52;4.50;;;1.33;;
60831;SDS011;46665;51.558;-0.448;2023-02-28T08:28:38;2.90;;;0.93;;
60831;SDS011;46665;51.558;-0.448;2023-02-28T08:31:23;10.63;;;1.55;;
60831;SDS011;46665;51.558;-0.448;2023-02-28T08:34:14;2.50;;;1.55;;
60831;SDS011;46665;51.558;-0.448;2023-02-28T08:36:59;2.92;;;1.02;;
60831;SDS011;46665;51.558;-0.448;2023-02-28T08:39:43;4.15;;;2.40;;
60831;SDS011;46665;51.558;-0.448;2023-02-28T08:42:27;8.93;;;1.58;;
60831;SDS011;46665;51.558;-0.448;2023-02-28T08:45:12;3.33;;;1.80;;
60831;SDS011;46665;51.558;-0.448;2023-02-28T08:47:57;2.05;;;1.55;;
60831;SDS011;46665;51.558;-0.448;2023-02-28T08:50:41;5.18;;;1.35;;
60831;SDS011;46665;51.558;-0.448;2023-02-28T08:53:25;4.72;;;1.50;;
60831;SDS011;46665;51.558;-0.448;2023-02-28T08:56:14;1.73;;;0.90;;
60831;SDS011;46665;51.558;-0.448;2023-02-28T08:59:00;1.73;;;1.00;;
60831;SDS011;46665;51.558;-0.448;2023-02-28T09:01:44;2.65;;;0.80;;
60831;SDS011;46665;51.558;-0.448;2023-02-28T09:04:28;2.35;;;1.10;;
60831;SDS011;46665;51.558;-0.448;2023-02-28T09:07:14;2.08;;;0.90;;
60831;SDS011;46665;51.558;-0.448;2023-02-28T09:09:58;0.50;;;0.50;;
60831;SDS011;46665;51.558;-0.448;2023-02-28T09:12:42;0.60;;;0.60;;
60831;SDS011;46665;51.558;-0.448;2023-02-28T09:15:29;1.75;;;0.93;;
60831;SDS011;46665;51.558;-0.448;2023-02-28T09:18:13;1.92;;;0.50;;
60831;SDS011;46665;51.558;-0.448;2023-02-28T09:20:58;0.60;;;0.50;;
60831;SDS011;46665;51.558;-0.448;2023-02-28T09:23:43;2.13;;;0.73;;
60831;SDS011;46665;51.558;-0.448;2023-02-28T09:26:27;0.50;;;0.50;;
60831;SDS011;46665;51.558;-0.448;2023-02-28T09:29:11;0.50;;;0.47;;
60831;SDS011;46665;51.558;-0.448;2023-02-28T09:31:55;0.60;;;0.60;;
60831;SDS011;46665;51.558;-0.448;2023-02-28T09:34:42;0.80;;;0.70;;
60831;SDS011;46665;51.558;-0.448;2023-02-28T09:37:26;0.68;;;0.60;;
60831;SDS011;46665;51.558;-0.448;2023-02-28T09:40:13;0.77;;;0.38;;
60831;SDS011;46665;51.558;-0.448;2023-02-28T09:42:58;0.57;;;0.57;;
60831;SDS011;46665;51.558;-0.448;2023-02-28T09:45:46;0.40;;;0.40;;
60831;SDS011;46665;51.558;-0.448;2023-02-28T09:48:37;1.90;;;0.77;;
60831;SDS011;46665;51.558;-0.448;2023-02-28T09:54:35;0.30;;;0.30;;
60831;SDS011;46665;51.558;-0.448;2023-02-28T09:57:53;0.38;;;0.38;;
60831;SDS011;46665;51.558;-0.448;2023-02-28T10:00:32;0.50;;;0.50;;
60831;SDS011;46665;51.558;-0.448;2023-02-28T10:06:17;0.40;;;0.40;;
60831;SDS011;46665;51.558;-0.448;2023-02-28T10:09:05;0.77;;;0.50;;
60831;SDS011;46665;51.558;-0.448;2023-02-28T10:11:59;0.73;;;0.73;;
60831;SDS011;46665;51.558;-0.448;2023-02-28T10:14:47;0.32;;;0.32;;
60831;SDS011;46665;51.558;-0.448;2023-02-28T10:17:39;0.40;;;0.40;;
60831;SDS011;46665;51.558;-0.448;2023-02-28T10:20:26;0.22;;;0.22;;
60831;SDS011;46665;51.558;-0.448;2023-02-28T10:26:12;0.55;;;0.40;;
60831;SDS011;46665;51.558;-0.448;2023-02-28T10:28:59;0.40;;;0.40;;
60831;SDS011;46665;51.558;-0.448;2023-02-28T10:31:44;0.35;;;0.35;;
60831;SDS011;46665;51.558;-0.448;2023-02-28T10:34:28;0.30;;;0.30;;
60831;SDS011;46665;51.558;-0.448;2023-02-28T10:37:12;0.20;;;0.20;;
60831;SDS011;46665;51.558;-0.448;2023-02-28T10:39:56;0.30;;;0.30;;
60831;SDS011;46665;51.558;-0.448;2023-02-28T10:42:40;3.35;;;0.60;;
60831;SDS011;46665;51.558;-0.448;2023-02-28T10:45:24;0.20;;;0.20;;
60831;SDS011;46665;51.558;-0.448;2023-02-28T10:56:26;0.60;;;0.60;;
60831;SDS011;46665;51.558;-0.448;2023-02-28T10:59:29;0.40;;;0.40;;
60831;SDS011;46665;51.558;-0.448;2023-02-28T11:02:34;0.40;;;0.40;;
60831;SDS011;46665;51.558;-0.448;2023-02-28T11:08:14;0.32;;;0.32;;
60831;SDS011;46665;51.558;-0.448;2023-02-28T11:11:01;0.40;;;0.40;;
60831;SDS011;46665;51.558;-0.448;2023-02-28T11:13:50;0.63;;;0.63;;
60831;SDS011;46665;51.558;-0.448;2023-02-28T11:16:37;0.98;;;0.80;;
60831;SDS011;46665;51.558;-0.448;2023-02-28T11:19:25;1.08;;;0.98;;
60831;SDS011;46665;51.558;-0.448;2023-02-28T11:22:18;0.90;;;0.90;;
60831;SDS011;46665;51.558;-0.448;2023-02-28T11:25:09;0.77;;;0.75;;
60831;SDS011;46665;51.558;-0.448;2023-02-28T11:28:04;0.80;;;0.80;;
60831;SDS011;46665;51.558;-0.448;2023-02-28T11:34:25;0.63;;;0.63;;
60831;SDS011;46665;51.558;-0.448;2023-02-28T11:37:20;1.10;;;1.00;;
60831;SDS011;46665;51.558;-0.448;2023-02-28T11:40:15;0.60;;;0.60;;
60831;SDS011;46665;51.558;-0.448;2023-02-28T11:43:02;0.70;;;0.70;;
60831;SDS011;46665;51.558;-0.448;2023-02-28T11:46:01;1.10;;;0.98;;
60831;SDS011;46665;51.558;-0.448;2023-02-28T11:51:53;1.20;;;0.90;;
60831;SDS011;46665;51.558;-0.448;2023-02-28T12:06:48;0.47;;;0.47;;
60831;SDS011;46665;51.558;-0.448;2023-02-28T12:15:43;0.50;;;0.50;;
60831;SDS011;46665;51.558;-0.448;2023-02-28T12:18:40;0.57;;;0.57;;
60831;SDS011;46665;51.558;-0.448;2023-02-28T12:27:50;2.50;;;1.15;;
60831;SDS011;46665;51.558;-0.448;2023-02-28T12:30:37;0.52;;;0.52;;
60831;SDS011;46665;51.558;-0.448;2023-02-28T12:33:38;1.13;;;0.88;;
60831;SDS011;46665;51.558;-0.448;2023-02-28T12:36:28;1.05;;;0.95;;
60831;SDS011;46665;51.558;-0.448;2023-02-28T12:39:26;0.47;;;0.47;;
60831;SDS011;46665;51.558;-0.448;2023-02-28T12:42:13;1.40;;;1.17;;
60831;SDS011;46665;51.558;-0.448;2023-02-28T12:47:54;1.45;;;1.20;;
60831;SDS011;46665;51.558;-0.448;2023-02-28T12:50:43;1.02;;;0.93;;
60831;SDS011;46665;51.558;-0.448;2023-02-28T12:53:32;0.47;;;0.47;;
60831;SDS011;46665;51.558;-0.448;2023-02-28T12:56:38;1.77;;;1.05;;
60831;SDS011;46665;51.558;-0.448;2023-02-28T12:59:56;0.98;;;0.50;;
60831;SDS011;46665;51.558;-0.448;2023-02-28T13:05:56;1.40;;;0.68;;
60831;SDS011;46665;51.558;-0.448;2023-02-28T13:09:00;0.88;;;0.73;;
60831;SDS011;46665;51.558;-0.448;2023-02-28T13:11:52;1.50;;;0.93;;
60831;SDS011;46665;51.558;-0.448;2023-02-28T13:14:38;1.08;;;0.98;;
60831;SDS011;46665;51.558;-0.448;2023-02-28T13:17:23;2.65;;;0.68;;
60831;SDS011;46665;51.558;-0.448;2023-02-28T13:23:35;1.08;;;0.80;;
60831;SDS011;46665;51.558;-0.448;2023-02-28T13:26:20;2.08;;;0.73;;
60831;SDS011;46665;51.558;-0.448;2023-02-28T13:29:20;0.82;;;0.82;;
60831;SDS011;46665;51.558;-0.448;2023-02-28T13:37:42;1.17;;;0.93;;
60831;SDS011;46665;51.558;-0.448;2023-02-28T13:40:34;1.83;;;0.65;;
60831;SDS011;46665;51.558;-0.448;2023-02-28T13:43:23;1.38;;;1.10;;
60831;SDS011;46665;51.558;-0.448;2023-02-28T13:49:31;3.50;;;1.20;;
60831;SDS011;46665;51.558;-0.448;2023-02-28T13:52:18;0.40;;;0.40;;
60831;SDS011;46665;51.558;-0.448;2023-02-28T13:55:12;3.17;;;0.80;;
60831;SDS011;46665;51.558;-0.448;2023-02-28T14:07:37;2.05;;;0.70;;
60831;SDS011;46665;51.558;-0.448;2023-02-28T14:10:31;1.48;;;0.50;;
60831;SDS011;46665;51.558;-0.448;2023-02-28T14:16:46;0.30;;;0.30;;
60831;SDS011;46665;51.558;-0.448;2023-02-28T14:19:32;1.85;;;0.40;;
60831;SDS011;46665;51.558;-0.448;2023-02-28T14:22:32;0.40;;;0.40;;
60831;SDS011;46665;51.558;-0.448;2023-02-28T14:25:28;0.38;;;0.38;;
60831;SDS011;46665;51.558;-0.448;2023-02-28T14:32:02;0.95;;;0.43;;
60831;SDS011;46665;51.558;-0.448;2023-02-28T14:35:00;0.20;;;0.20;;
60831;SDS011;46665;51.558;-0.448;2023-02-28T14:37:46;0.22;;;0.22;;
60831;SDS011;46665;51.558;-0.448;2023-02-28T14:40:32;0.20;;;0.20;;
60831;SDS011;46665;51.558;-0.448;2023-02-28T14:43:22;0.77;;;0.35;;
60831;SDS011;46665;51.558;-0.448;2023-02-28T14:46:11;2.15;;;0.85;;
60831;SDS011;46665;51.558;-0.448;2023-02-28T14:48:56;0.32;;;0.32;;
60831;SDS011;46665;51.558;-0.448;2023-02-28T14:51:40;1.52;;;0.75;;
60831;SDS011;46665;51.558;-0.448;2023-02-28T14:54:24;0.73;;;0.35;;
60831;SDS011;46665;51.558;-0.448;2023-02-28T14:57:20;0.30;;;0.30;;
60831;SDS011;46665;51.558;-0.448;2023-02-28T15:00:16;0.40;;;0.38;;
60831;SDS011;46665;51.558;-0.448;2023-02-28T15:03:18;0.40;;;0.40;;
60831;SDS011;46665;51.558;-0.448;2023-02-28T15:06:05;0.30;;;0.30;;
60831;SDS011;46665;51.558;-0.448;2023-02-28T15:09:14;0.40;;;0.40;;
60831;SDS011;46665;51.558;-0.448;2023-02-28T15:12:00;0.80;;;0.40;;
60831;SDS011;46665;51.558;-0.448;2023-02-28T15:14:45;0.38;;;0.38;;
60831;SDS011;46665;51.558;-0.448;2023-02-28T15:17:30;0.50;;;0.40;;
60831;SDS011;46665;51.558;-0.448;2023-02-28T15:20:14;1.67;;;0.50;;
60831;SDS011;46665;51.558;-0.448;2023-02-28T15:23:00;0.45;;;0.43;;
60831;SDS011;46665;51.558;-0.448;2023-02-28T15:25:45;0.57;;;0.57;;
60831;SDS011;46665;51.558;-0.448;2023-02-28T15:28:29;0.88;;;0.35;;
60831;SDS011;46665;51.558;-0.448;2023-02-28T15:31:21;1.02;;;0.43;;
60831;SDS011;46665;51.558;-0.448;2023-02-28T15:40:45;0.30;;;0.30;;
60831;SDS011;46665;51.558;-0.448;2023-02-28T15:46:09;0.32;;;0.32;;
60831;SDS011;46665;51.558;-0.448;2023-02-28T15:48:56;0.28;;;0.28;;
60831;SDS011;46665;51.558;-0.448;2023-02-28T15:51:41;0.35;;;0.35;;
60831;SDS011;46665;51.558;-0.448;2023-02-28T15:54:29;0.20;;;0.20;;
60831;SDS011;46665;51.558;-0.448;2023-02-28T15:57:22;0.30;;;0.30;;
60831;SDS011;46665;51.558;-0.448;2023-02-28T16:00:13;0.20;;;0.20;;
60831;SDS011;46665;51.558;-0.448;2023-02-28T16:02:59;0.20;;;0.20;;
60831;SDS011;46665;51.558;-0.448;2023-02-28T16:05:43;3.22;;;0.28;;
60831;SDS011;46665;51.558;-0.448;2023-02-28T16:08:27;0.30;;;0.30;;
60831;SDS011;46665;51.558;-0.448;2023-02-28T16:11:11;0.30;;;0.30;;
60831;SDS011;46665;51.558;-0.448;2023-02-28T16:13:55;0.20;;;0.20;;
60831;SDS011;46665;51.558;-0.448;2023-02-28T16:16:44;0.25;;;0.25;;
60831;SDS011;46665;51.558;-0.448;2023-02-28T16:19:30;0.20;;;0.20;;
60831;SDS011;46665;51.558;-0.448;2023-02-28T16:22:15;0.30;;;0.30;;
60831;SDS011;46665;51.558;-0.448;2023-02-28T16:24:59;0.35;;;0.35;;
60831;SDS011;46665;51.558;-0.448;2023-02-28T16:27:44;8.30;;;0.55;;
60831;SDS011;46665;51.558;-0.448;2023-02-28T16:30:32;0.68;;;0.40;;
60831;SDS011;46665;51.558;-0.448;2023-02-28T16:33:16;0.20;;;0.20;;
60831;SDS011;46665;51.558;-0.448;2023-02-28T16:36:00;1.02;;;0.50;;
60831;SDS011;46665;51.558;-0.448;2023-02-28T16:38:44;0.30;;;0.30;;
60831;SDS011;46665;51.558;-0.448;2023-02-28T16:41:29;0.40;;;0.40;;
60831;SDS011;46665;51.558;-0.448;2023-02-28T16:44:14;0.20;;;0.20;;
60831;SDS011;46665;51.558;-0.448;2023-02-28T16:47:12;0.20;;;0.20;;
60831;SDS011;46665;51.558;-0.448;2023-02-28T16:49:56;0.20;;;0.20;;
60831;SDS011;46665;51.558;-0.448;2023-02-28T16:52:40;0.20;;;0.20;;
60831;SDS011;46665;51.558;-0.448;2023-02-28T16:55:24;0.93;;;0.80;;
60831;SDS011;46665;51.558;-0.448;2023-02-28T16:58:13;0.85;;;0.68;;
60831;SDS011;46665;51.558;-0.448;2023-02-28T17:00:59;1.05;;;0.70;;
60831;SDS011;46665;51.558;-0.448;2023-02-28T17:03:43;1.40;;;0.75;;
60831;SDS011;46665;51.558;-0.448;2023-02-28T17:06:27;1.77;;;0.82;;
60831;SDS011;46665;51.558;-0.448;2023-02-28T17:09:20;2.63;;;0.40;;
60831;SDS011;46665;51.558;-0.448;2023-02-28T17:12:05;0.60;;;0.35;;
60831;SDS011;46665;51.558;-0.448;2023-02-28T17:14:49;0.40;;;0.40;;
60831;SDS011;46665;51.558;-0.448;2023-02-28T17:17:33;0.20;;;0.20;;
60831;SDS011;46665;51.558;-0.448;2023-02-28T17:20:19;0.20;;;0.20;;
60831;SDS011;46665;51.558;-0.448;2023-02-28T17:23:07;1.23;;;0.45;;
60831;SDS011;46665;51.558;-0.448;2023-02-28T17:25:51;0.40;;;0.40;;
60831;SDS011;46665;51.558;-0.448;2023-02-28T17:28:38;0.30;;;0.30;;
60831;SDS011;46665;51.558;-0.448;2023-02-28T17:31:23;0.30;;;0.30;;
60831;SDS011;46665;51.558;-0.448;2023-02-28T17:34:08;0.28;;;0.28;;
60831;SDS011;46665;51.558;-0.448;2023-02-28T17:36:52;1.52;;;0.30;;
60831;SDS011;46665;51.558;-0.448;2023-02-28T17:39:36;0.38;;;0.38;;
60831;SDS011;46665;51.558;-0.448;2023-02-28T17:42:20;0.30;;;0.30;;
60831;SDS011;46665;51.558;-0.448;2023-02-28T17:45:04;0.30;;;0.30;;
60831;SDS011;46665;51.558;-0.448;2023-02-28T17:47:49;0.30;;;0.30;;
60831;SDS011;46665;51.558;-0.448;2023-02-28T17:50:36;0.20;;;0.20;;
60831;SDS011;46665;51.558;-0.448;2023-02-28T17:53:20;0.30;;;0.30;;
60831;SDS011;46665;51.558;-0.448;2023-02-28T17:56:13;0.30;;;0.30;;
60831;SDS011;46665;51.558;-0.448;2023-02-28T17:58:59;0.40;;;0.40;;
60831;SDS011;46665;51.558;-0.448;2023-02-28T18:01:43;0.45;;;0.40;;
60831;SDS011;46665;51.558;-0.448;2023-02-28T18:04:27;0.28;;;0.28;;
60831;SDS011;46665;51.558;-0.448;2023-02-28T18:07:11;0.55;;;0.52;;
60831;SDS011;46665;51.558;-0.448;2023-02-28T18:09:56;0.20;;;0.20;;
60831;SDS011;46665;51.558;-0.448;2023-02-28T18:12:40;0.30;;;0.30;;
60831;SDS011;46665;51.558;-0.448;2023-02-28T18:15:24;1.23;;;0.30;;
60831;SDS011;46665;51.558;-0.448;2023-02-28T18:18:08;0.20;;;0.20;;
60831;SDS011;46665;51.558;-0.448;2023-02-28T18:20:52;0.50;;;0.40;;
60831;SDS011;46665;51.558;-0.448;2023-02-28T18:23:37;0.38;;;0.38;;
60831;SDS011;46665;51.558;-0.448;2023-02-28T18:26:28;0.30;;;0.30;;
60831;SDS011;46665;51.558;-0.448;2023-02-28T18:29:16;0.40;;;0.40;;
60831;SDS011;46665;51.558;-0.448;2023-02-28T18:32:03;0.30;;;0.30;;
60831;SDS011;46665;51.558;-0.448;2023-02-28T18:34:48;0.40;;;0.40;;
60831;SDS011;46665;51.558;-0.448;2023-02-28T18:37:33;0.30;;;0.30;;
60831;SDS011;46665;51.558;-0.448;2023-02-28T18:40:18;0.38;;;0.32;;
60831;SDS011;46665;51.558;-0.448;2023-02-28T18:43:02;3.13;;;0.38;;